Time;durP1;ratioP1;P1;durP2;ratioP2;P2;SDS_P1;SDS_P2;PMS_P1;PMS_P2;Temp;Humidity;BMP_temperature;BMP_pressure;BME280_temperature;BME280_humidity;BME280_pressure;Samples;Min_cycle;Max_cycle;Signal;HPM_P1;HPM_P2
2022/04/26 03:36:22;;;;;;;38.23;19.37;;;10.70;95.70;;;;;;5025650;28;20937;-76
2022/04/26 03:38:48;;;;;;;38.23;19.83;;;10.60;95.80;;;;;;5016239;28;20437;-76
2022/04/26 03:41:17;;;;;;;36.83;19.80;;;10.50;96.10;;;;;;5025119;28;20962;-75
2022/04/26 03:43:42;;;;;;;44.60;22.63;;;10.60;96.40;;;;;;5034259;28;21111;-77
2022/04/26 03:46:08;;;;;;;37.30;19.90;;;10.60;96.50;;;;;;5014741;28;20425;-77
2022/04/26 03:48:34;;;;;;;38.03;20.27;;;10.60;96.50;;;;;;5010453;28;20472;-77
2022/04/26 03:51:00;;;;;;;37.80;19.30;;;10.60;96.50;;;;;;5014132;28;20515;-76
2022/04/26 03:53:26;;;;;;;35.80;18.77;;;10.60;96.50;;;;;;5005368;28;20205;-73
2022/04/26 03:55:52;;;;;;;40.57;20.93;;;10.60;96.50;;;;;;5012731;28;20413;-75
2022/04/26 03:58:17;;;;;;;40.70;19.30;;;10.70;96.50;;;;;;5015326;28;20218;-76
2022/04/26 04:00:43;;;;;;;43.57;19.90;;;10.70;96.40;;;;;;5013575;28;20185;-78
2022/04/26 04:03:09;;;;;;;41.00;19.70;;;10.70;96.40;;;;;;5011089;28;20190;-76
2022/04/26 04:05:35;;;;;;;41.20;19.50;;;10.70;96.50;;;;;;5018473;28;20208;-78
2022/04/26 04:08:01;;;;;;;41.17;18.90;;;10.70;96.50;;;;;;5018102;28;20504;-76
2022/04/26 04:10:27;;;;;;;45.90;21.27;;;10.70;96.60;;;;;;5018270;28;20741;-76
2022/04/26 04:12:52;;;;;;;40.50;19.60;;;10.70;96.60;;;;;;5014748;28;20421;-75
2022/04/26 04:15:19;;;;;;;42.33;19.67;;;10.70;96.50;;;;;;5025331;28;20179;-75
2022/04/26 04:17:44;;;;;;;34.53;17.67;;;10.70;96.60;;;;;;5019255;28;20729;-77
2022/04/26 04:20:11;;;;;;;38.53;20.77;;;10.80;96.60;;;;;;5018783;28;20417;-77
2022/04/26 04:22:38;;;;;;;35.90;18.43;;;10.80;96.60;;;;;;5010541;28;20190;-77
2022/04/26 04:25:04;;;;;;;34.80;17.77;;;10.80;96.60;;;;;;5020189;28;20575;-77
2022/04/26 04:27:31;;;;;;;26.57;14.80;;;10.80;96.40;;;;;;5018170;28;20511;-75
2022/04/26 04:30:02;;;;;;;26.27;13.83;;;10.70;96.20;;;;;;5015709;28;20509;-76
2022/04/26 04:32:28;;;;;;;25.40;13.07;;;10.60;95.50;;;;;;5019872;28;20443;-77
2022/04/26 04:34:54;;;;;;;26.20;14.43;;;10.50;95.60;;;;;;5017674;28;20424;-75
2022/04/26 04:37:20;;;;;;;22.10;13.33;;;10.50;95.80;;;;;;5021476;28;20787;-77
2022/04/26 04:39:45;;;;;;;29.80;15.07;;;10.50;96.00;;;;;;5019551;28;20185;-77
2022/04/26 04:42:13;;;;;;;27.93;14.70;;;10.50;96.00;;;;;;5022706;28;20216;-76
2022/04/26 04:44:38;;;;;;;29.10;15.80;;;10.50;96.10;;;;;;5016623;28;20681;-76
2022/04/26 04:47:04;;;;;;;25.50;13.80;;;10.40;96.20;;;;;;5014903;28;20483;-77
2022/04/26 04:49:30;;;;;;;25.70;13.27;;;10.60;96.40;;;;;;5023811;28;20201;-76
2022/04/26 04:51:56;;;;;;;28.83;15.00;;;10.50;96.20;;;;;;5017111;28;20912;-75
2022/04/26 04:54:22;;;;;;;25.47;12.67;;;10.50;96.10;;;;;;5015632;28;20204;-75
2022/04/26 04:56:47;;;;;;;25.23;14.30;;;10.60;96.00;;;;;;5015818;28;20480;-76
2022/04/26 04:59:13;;;;;;;28.40;14.30;;;10.60;96.00;;;;;;5014171;28;20217;-77
2022/04/26 05:01:39;;;;;;;26.93;15.13;;;10.60;96.00;;;;;;5031209;28;20240;-75
2022/04/26 05:04:04;;;;;;;30.63;15.37;;;10.60;96.10;;;;;;5030028;28;20190;-75
2022/04/26 05:06:30;;;;;;;33.90;17.00;;;10.70;96.10;;;;;;5029671;28;20241;-74
2022/04/26 05:08:57;;;;;;;32.70;17.17;;;10.70;96.10;;;;;;5025811;28;20236;-77
2022/04/26 05:11:23;;;;;;;34.40;17.37;;;10.70;96.20;;;;;;5024344;28;20217;-74
2022/04/26 05:13:49;;;;;;;34.27;15.13;;;10.70;96.30;;;;;;5027829;28;20511;-74
2022/04/26 05:16:15;;;;;;;30.17;16.73;;;10.80;96.30;;;;;;5031779;28;20544;-76
2022/04/26 05:18:40;;;;;;;31.27;16.57;;;10.80;96.20;;;;;;5030375;28;20265;-77
2022/04/26 05:21:08;;;;;;;33.37;15.90;;;10.90;96.10;;;;;;5024274;28;20197;-76
2022/04/26 05:26:18;;;;;;;32.73;16.40;;;10.90;96.00;;;;;;5017631;28;20423;-76
2022/04/26 05:28:44;;;;;;;32.90;16.00;;;11.00;95.90;;;;;;5019361;28;20452;-76
2022/04/26 05:31:10;;;;;;;36.70;17.33;;;11.00;95.80;;;;;;5017410;28;20482;-77
2022/04/26 05:33:36;;;;;;;35.10;18.27;;;10.90;95.80;;;;;;5015007;28;20802;-77
2022/04/26 05:36:03;;;;;;;34.40;17.10;;;11.00;96.00;;;;;;5019163;28;20548;-73
2022/04/26 05:38:29;;;;;;;32.60;16.20;;;11.00;96.00;;;;;;5015610;28;20244;-77
2022/04/26 05:40:54;;;;;;;32.90;16.40;;;11.10;96.00;;;;;;5020067;28;20456;-76
2022/04/26 05:43:20;;;;;;;36.03;16.47;;;11.10;96.00;;;;;;5018674;28;20982;-78
2022/04/26 05:45:46;;;;;;;36.87;16.90;;;11.10;96.00;;;;;;5018285;28;20248;-76
2022/04/26 05:48:13;;;;;;;38.10;18.80;;;11.10;95.80;;;;;;5012748;28;20678;-77
2022/04/26 05:50:40;;;;;;;36.10;17.13;;;11.20;95.50;;;;;;5020671;28;20240;-77
2022/04/26 05:53:06;;;;;;;25.27;13.93;;;11.20;95.00;;;;;;5010620;28;20870;-74
2022/04/26 05:55:32;;;;;;;30.73;16.27;;;11.10;94.70;;;;;;5014439;28;20456;-76
2022/04/26 05:57:58;;;;;;;29.83;15.40;;;11.10;94.40;;;;;;5016599;28;20436;-76
2022/04/26 06:00:24;;;;;;;27.90;14.30;;;11.00;94.50;;;;;;5005496;28;20639;-77
2022/04/26 06:02:50;;;;;;;35.00;16.90;;;11.00;94.60;;;;;;5012556;28;20421;-77
2022/04/26 06:05:16;;;;;;;33.10;17.80;;;11.00;94.90;;;;;;5014513;28;20455;-77
2022/04/26 06:07:41;;;;;;;32.70;18.07;;;11.00;95.10;;;;;;5020508;28;20304;-77
2022/04/26 06:10:07;;;;;;;34.37;17.60;;;11.00;95.00;;;;;;5011642;28;20473;-77
2022/04/26 06:12:34;;;;;;;36.57;18.13;;;10.80;94.70;;;;;;5010466;28;20272;-76
2022/04/26 06:15:00;;;;;;;35.37;17.40;;;10.60;94.80;;;;;;5018583;28;20431;-77
2022/04/26 06:17:27;;;;;;;32.40;17.03;;;10.50;95.00;;;;;;5014902;28;20521;-76
2022/04/26 06:19:52;;;;;;;35.97;17.90;;;10.40;95.30;;;;;;5018341;28;20455;-76
2022/04/26 06:22:18;;;;;;;38.13;19.07;;;10.50;95.60;;;;;;5017255;28;20858;-77
2022/04/26 06:24:44;;;;;;;30.33;17.40;;;10.50;95.50;;;;;;5018660;28;20185;-77
2022/04/26 06:27:10;;;;;;;33.73;18.47;;;10.50;95.30;;;;;;5015550;28;20479;-77
2022/04/26 06:29:37;;;;;;;34.43;17.73;;;10.60;95.30;;;;;;5011731;28;20510;-76
2022/04/26 06:32:03;;;;;;;34.23;18.57;;;10.70;95.20;;;;;;5020237;28;20461;-76
2022/04/26 06:34:29;;;;;;;27.20;14.90;;;10.80;95.20;;;;;;5020814;28;20416;-76
2022/04/26 06:36:55;;;;;;;42.60;21.57;;;10.90;94.40;;;;;;5023295;28;20927;-76
2022/04/26 06:39:21;;;;;;;29.43;15.90;;;11.00;94.10;;;;;;5017655;28;20450;-77
2022/04/26 06:41:47;;;;;;;28.80;16.17;;;11.00;93.90;;;;;;5018704;28;20196;-77
2022/04/26 06:44:12;;;;;;;24.90;15.57;;;11.10;93.60;;;;;;5017977;28;21235;-76
2022/04/26 06:46:39;;;;;;;27.40;14.53;;;11.10;93.40;;;;;;5014428;28;20986;-76
2022/04/26 06:49:05;;;;;;;33.13;17.30;;;11.10;93.20;;;;;;5019291;28;20450;-77
2022/04/26 06:51:40;;;;;;;28.63;16.67;;;11.00;92.90;;;;;;5016539;28;20465;-77
2022/04/26 06:54:09;;;;;;;26.93;15.57;;;10.80;93.20;;;;;;5026681;28;20423;-78
2022/04/26 06:56:35;;;;;;;30.40;16.67;;;10.80;93.50;;;;;;5024440;28;20946;-77
2022/04/26 06:59:01;;;;;;;29.00;16.33;;;10.80;93.70;;;;;;5018732;28;20484;-76
2022/04/26 07:01:27;;;;;;;30.17;15.27;;;10.80;93.70;;;;;;5014546;28;20281;-77
2022/04/26 07:03:53;;;;;;;31.43;15.90;;;10.90;93.50;;;;;;5018619;28;20189;-77
2022/04/26 07:06:19;;;;;;;25.50;15.17;;;10.80;93.40;;;;;;5016418;28;20490;-78
2022/04/26 07:08:46;;;;;;;28.93;14.97;;;10.80;93.60;;;;;;5013800;28;20327;-77
2022/04/26 07:11:14;;;;;;;29.37;15.83;;;10.70;93.70;;;;;;5016535;28;20217;-77
2022/04/26 07:13:40;;;;;;;31.47;16.23;;;10.70;94.00;;;;;;5014641;28;20477;-76
2022/04/26 07:16:06;;;;;;;29.70;15.60;;;10.70;94.10;;;;;;5014604;28;20492;-76
2022/04/26 07:18:33;;;;;;;29.70;14.90;;;10.60;94.20;;;;;;5029477;28;20212;-76
2022/04/26 07:20:59;;;;;;;24.00;14.53;;;10.60;94.20;;;;;;5026700;28;20436;-75
2022/04/26 07:23:25;;;;;;;23.70;12.83;;;10.80;94.20;;;;;;5024532;28;20428;-77
2022/04/26 07:25:58;;;;;;;26.13;13.07;;;10.80;93.90;;;;;;5018714;28;20425;-76
2022/04/26 07:28:23;;;;;;;22.03;11.57;;;11.00;93.80;;;;;;5025639;28;20244;-77
2022/04/26 07:30:49;;;;;;;18.87;11.23;;;11.10;93.50;;;;;;5008616;28;20501;-77
2022/04/26 07:35:59;;;;;;;19.10;9.80;;;11.60;91.60;;;;;;5014708;28;20192;-76
2022/04/26 07:38:25;;;;;;;17.10;10.30;;;11.70;88.30;;;;;;5009744;28;20448;-76
2022/04/26 07:40:50;;;;;;;14.23;8.50;;;11.90;87.80;;;;;;5014479;28;20208;-76
2022/04/26 07:43:16;;;;;;;17.40;8.50;;;12.10;88.00;;;;;;5013858;28;20193;-76
2022/04/26 07:45:44;;;;;;;15.50;9.33;;;12.10;87.40;;;;;;5017597;28;20197;-77
2022/04/26 07:48:11;;;;;;;16.10;10.03;;;12.00;87.10;;;;;;5015445;28;20445;-77
2022/04/26 07:50:38;;;;;;;16.90;10.47;;;12.00;87.30;;;;;;5020043;28;20530;-77
2022/04/26 07:53:04;;;;;;;16.50;9.30;;;11.90;86.50;;;;;;5013991;28;20433;-76
2022/04/26 07:55:30;;;;;;;13.33;9.47;;;11.90;87.00;;;;;;5012986;28;20927;-77
2022/04/26 07:58:00;;;;;;;14.93;9.27;;;11.90;86.60;;;;;;5018325;28;20956;-77
2022/04/26 08:00:26;;;;;;;16.47;10.30;;;11.80;86.90;;;;;;5015712;28;20433;-76
2022/04/26 08:02:52;;;;;;;16.23;9.77;;;11.60;86.50;;;;;;5012825;28;20961;-76
2022/04/26 08:05:18;;;;;;;15.87;9.60;;;11.60;86.90;;;;;;5017968;28;20431;-78
2022/04/26 08:07:44;;;;;;;15.00;9.53;;;11.60;87.40;;;;;;5024234;28;20536;-76
2022/04/26 08:10:12;;;;;;;23.00;10.23;;;11.70;87.00;;;;;;5021404;28;20276;-77
2022/04/26 08:12:38;;;;;;;16.83;9.27;;;11.80;87.10;;;;;;5013025;28;20941;-76
2022/04/26 08:15:04;;;;;;;15.90;9.93;;;11.70;84.30;;;;;;5019305;28;20891;-77
2022/04/26 08:17:30;;;;;;;14.83;8.87;;;11.70;84.90;;;;;;5016206;28;20439;-77
2022/04/26 08:19:56;;;;;;;17.03;9.37;;;11.70;84.90;;;;;;5016298;28;20488;-77
2022/04/26 08:22:22;;;;;;;18.70;10.83;;;11.80;85.20;;;;;;5012514;28;20189;-77
2022/04/26 08:27:33;;;;;;;16.63;9.87;;;11.70;83.40;;;;;;5021442;28;20304;-75
2022/04/26 08:30:00;;;;;;;17.50;10.50;;;11.90;84.40;;;;;;5017999;28;20417;-77
2022/04/26 08:32:29;;;;;;;16.20;10.20;;;12.00;84.70;;;;;;5023279;28;20428;-76
2022/04/26 08:34:55;;;;;;;16.70;10.20;;;12.10;84.40;;;;;;5012485;28;20428;-76
2022/04/26 08:37:23;;;;;;;14.47;10.07;;;11.90;83.80;;;;;;5017659;28;20421;-77
2022/04/26 08:39:52;;;;;;;17.80;10.03;;;11.80;84.70;;;;;;5021462;28;20425;-78
2022/04/26 08:42:40;;;;;;;14.83;9.20;;;11.80;84.60;;;;;;5016412;28;20456;-75
2022/04/26 08:45:11;;;;;;;17.53;9.80;;;11.90;84.60;;;;;;5015169;28;20467;-77
2022/04/26 08:53:08;;;;;;;15.63;9.93;;;12.60;82.80;;;;;;5013354;28;20416;-77
2022/04/26 08:55:41;;;;;;;14.20;9.93;;;12.80;82.10;;;;;;5013926;28;20825;-77
2022/04/26 08:58:10;;;;;;;16.53;10.27;;;13.00;82.20;;;;;;5019116;28;20528;-76
2022/04/26 09:00:37;;;;;;;16.50;9.30;;;12.90;77.30;;;;;;5016362;28;20505;-77
2022/04/26 09:03:07;;;;;;;15.70;10.53;;;12.80;78.00;;;;;;5014488;28;20425;-77
2022/04/26 09:05:34;;;;;;;14.90;9.07;;;12.70;78.40;;;;;;5016149;28;20531;-78
2022/04/26 09:08:20;;;;;;;16.87;9.77;;;12.50;76.40;;;;;;5021963;28;20460;-77
2022/04/26 09:10:47;;;;;;;14.50;8.90;;;12.50;77.30;;;;;;5014527;28;20550;-77
2022/04/26 09:13:15;;;;;;;13.60;9.17;;;12.70;77.00;;;;;;5019751;28;20417;-77
2022/04/26 09:15:44;;;;;;;15.50;9.47;;;12.70;76.40;;;;;;5027195;28;20463;-78
2022/04/26 09:18:33;;;;;;;15.20;9.00;;;12.80;76.40;;;;;;5020792;28;20560;-76
2022/04/26 09:21:05;;;;;;;13.43;8.70;;;12.70;74.80;;;;;;5036442;28;20487;-77
2022/04/26 09:23:35;;;;;;;16.03;8.97;;;12.50;73.30;;;;;;5020416;28;20807;-76
2022/04/26 09:26:12;;;;;;;15.10;8.97;;;12.60;73.70;;;;;;5021775;28;20417;-77
2022/04/26 09:28:48;;;;;;;12.13;8.50;;;12.70;72.70;;;;;;5023847;28;20526;-75
2022/04/26 09:31:21;;;;;;;13.83;8.30;;;12.80;72.70;;;;;;5030192;28;20463;-77
2022/04/26 09:33:49;;;;;;;14.90;7.13;;;12.70;72.10;;;;;;5029340;28;20425;-76
2022/04/26 09:36:18;;;;;;;16.83;9.53;;;12.70;73.70;;;;;;5018436;28;20413;-76
2022/04/26 09:38:57;;;;;;;11.37;8.20;;;13.00;74.50;;;;;;5021636;28;20460;-75
2022/04/26 09:41:25;;;;;;;14.13;8.17;;;13.30;73.70;;;;;;5019567;28;20576;-78
2022/04/26 09:44:02;;;;;;;12.13;8.10;;;13.30;72.30;;;;;;5031104;28;20480;-77
2022/04/26 09:46:40;;;;;;;17.53;10.00;;;13.50;72.70;;;;;;5030482;28;20471;-77
2022/04/26 09:49:06;;;;;;;13.77;8.60;;;13.60;72.00;;;;;;5039494;28;20431;-76
2022/04/26 09:51:32;;;;;;;13.13;7.67;;;13.40;69.80;;;;;;5032575;28;20519;-76
2022/04/26 09:53:58;;;;;;;9.77;6.37;;;13.40;66.00;;;;;;5029842;28;20420;-76
2022/04/26 09:56:27;;;;;;;11.30;7.63;;;13.30;66.60;;;;;;5028678;28;20719;-76
2022/04/26 09:58:56;;;;;;;10.60;7.23;;;13.40;66.70;;;;;;5030616;28;20503;-77
2022/04/26 10:01:27;;;;;;;12.03;7.23;;;13.60;64.40;;;;;;5021934;28;20424;-77
2022/04/26 10:04:02;;;;;;;11.50;6.90;;;13.90;65.10;;;;;;5033858;28;20421;-74
2022/04/26 10:06:36;;;;;;;12.37;7.10;;;13.90;63.50;;;;;;5027763;28;20443;-76
2022/04/26 10:09:03;;;;;;;17.17;8.40;;;14.10;63.70;;;;;;5018175;28;20507;-76
2022/04/26 10:11:30;;;;;;;11.43;6.77;;;14.20;63.80;;;;;;5022388;28;20464;-75
2022/04/26 10:13:57;;;;;;;11.17;6.90;;;13.70;63.20;;;;;;5014787;28;20413;-76
2022/04/26 10:16:24;;;;;;;10.93;6.50;;;13.70;64.20;;;;;;5022752;28;20515;-76
2022/04/26 10:18:50;;;;;;;13.70;7.63;;;13.80;64.20;;;;;;5020919;28;20459;-76
2022/04/26 10:21:21;;;;;;;10.20;7.33;;;14.10;65.30;;;;;;5023387;28;20412;-76
2022/04/26 10:24:11;;;;;;;10.93;6.83;;;14.30;65.00;;;;;;5021772;28;20420;-75
2022/04/26 10:26:37;;;;;;;11.40;7.37;;;14.20;63.50;;;;;;5018405;28;20519;-76
2022/04/26 10:29:09;;;;;;;10.63;7.37;;;13.80;64.70;;;;;;5017453;28;20471;-77
2022/04/26 10:31:40;;;;;;;10.17;7.20;;;13.70;65.30;;;;;;5016356;28;20465;-76
2022/04/26 10:34:18;;;;;;;13.00;6.40;;;13.80;65.60;;;;;;5015055;28;20497;-76
2022/04/26 10:37:01;;;;;;;13.00;6.30;;;13.90;64.50;;;;;;5021474;28;20423;-76
2022/04/26 10:39:31;;;;;;;12.40;6.87;;;14.40;64.20;;;;;;5016499;28;20804;-78
2022/04/26 10:41:57;;;;;;;11.07;7.00;;;15.20;63.40;;;;;;5013515;28;20420;-75
2022/04/26 10:44:32;;;;;;;10.10;6.50;;;15.30;61.20;;;;;;5013220;28;20455;-76
2022/04/26 10:47:03;;;;;;;10.10;7.13;;;15.20;58.70;;;;;;5013010;28;20420;-75
2022/04/26 10:49:32;;;;;;;10.10;6.53;;;15.10;57.70;;;;;;5012430;28;20445;-76
2022/04/26 10:52:19;;;;;;;9.80;6.43;;;15.00;58.20;;;;;;5014696;28;20461;-76
2022/04/26 10:55:01;;;;;;;10.27;6.30;;;14.90;57.00;;;;;;5013165;28;20415;-78
2022/04/26 10:57:28;;;;;;;13.70;6.57;;;14.80;57.60;;;;;;5022276;28;20490;-75
2022/04/26 11:00:14;;;;;;;8.93;5.80;;;14.60;57.60;;;;;;5015640;28;20443;-77
2022/04/26 11:02:50;;;;;;;8.87;5.80;;;14.70;58.80;;;;;;5020729;28;20424;-76
2022/04/26 11:05:25;;;;;;;10.23;6.40;;;14.70;59.30;;;;;;5018785;28;20512;-77
2022/04/26 11:07:51;;;;;;;8.10;6.17;;;15.00;57.00;;;;;;5023779;28;20491;-76
2022/04/26 11:10:21;;;;;;;9.33;5.83;;;15.40;56.20;;;;;;5023092;28;20409;-78
2022/04/26 11:12:47;;;;;;;11.00;5.70;;;15.50;54.50;;;;;;5018219;28;20844;-77
2022/04/26 11:15:25;;;;;;;5.97;4.53;;;15.50;53.30;;;;;;5024050;28;20471;-77
2022/04/26 11:17:52;;;;;;;6.20;5.27;;;15.50;53.80;;;;;;5018104;28;20438;-77
2022/04/26 11:20:24;;;;;;;6.20;4.77;;;15.70;53.70;;;;;;5015546;28;20519;-78
2022/04/26 11:22:52;;;;;;;11.93;7.80;;;15.50;53.00;;;;;;5016685;28;20428;-77
2022/04/26 11:28:08;;;;;;;14.10;9.07;;;14.20;65.60;;;;;;5022135;28;20439;-75
2022/04/26 11:30:58;;;;;;;15.43;9.10;;;13.40;70.10;;;;;;5016037;28;20465;-76
2022/04/26 11:33:25;;;;;;;14.30;9.30;;;12.90;72.00;;;;;;5012028;28;20429;-76
2022/04/26 11:36:00;;;;;;;13.63;8.50;;;12.90;71.60;;;;;;5013571;28;20933;-76
2022/04/26 11:38:27;;;;;;;13.77;8.30;;;13.30;70.70;;;;;;5015085;28;20458;-76
2022/04/26 11:41:00;;;;;;;15.50;8.70;;;13.50;69.80;;;;;;5012384;28;20456;-77
2022/04/26 11:43:31;;;;;;;18.90;9.27;;;13.60;68.60;;;;;;5012196;28;20412;-76
2022/04/26 11:45:58;;;;;;;13.30;8.50;;;13.50;69.10;;;;;;5012425;28;20420;-76
2022/04/26 11:48:29;;;;;;;13.93;8.50;;;13.10;69.80;;;;;;5016995;28;20444;-77
2022/04/26 11:50:56;;;;;;;13.73;8.27;;;13.00;68.90;;;;;;5020478;28;20496;-76
2022/04/26 11:53:24;;;;;;;14.13;8.20;;;12.80;69.70;;;;;;5007701;28;20424;-76
2022/04/26 11:55:57;;;;;;;12.90;8.20;;;12.80;70.80;;;;;;5015444;28;20417;-76
2022/04/26 11:58:36;;;;;;;12.80;7.80;;;12.80;70.10;;;;;;5017534;28;20491;-78
2022/04/26 12:01:13;;;;;;;10.00;7.60;;;12.70;71.40;;;;;;5009480;28;20460;-75
2022/04/26 12:03:52;;;;;;;10.60;7.33;;;12.80;71.10;;;;;;5019672;28;20421;-76
2022/04/26 12:06:25;;;;;;;13.10;7.20;;;12.60;69.70;;;;;;5009805;28;20437;-77
2022/04/26 12:08:55;;;;;;;12.40;6.70;;;12.90;69.20;;;;;;5023364;28;20898;-77
2022/04/26 12:11:23;;;;;;;10.90;6.03;;;13.40;67.90;;;;;;5015778;28;20476;-77
2022/04/26 12:14:12;;;;;;;9.70;6.27;;;13.70;65.80;;;;;;5009382;28;20866;-75
2022/04/26 12:16:47;;;;;;;10.53;6.60;;;13.70;63.70;;;;;;5017215;28;20519;-76
2022/04/26 12:19:13;;;;;;;13.60;7.70;;;13.60;63.20;;;;;;5014241;28;20432;-78
2022/04/26 12:21:43;;;;;;;10.53;6.60;;;13.40;63.50;;;;;;5020235;28;20422;-76
2022/04/26 12:24:17;;;;;;;12.30;7.37;;;13.10;65.00;;;;;;5025783;28;20429;-77
2022/04/26 12:27:13;;;;;;;10.80;7.37;;;13.20;65.30;;;;;;5021243;28;20427;-77
2022/04/26 12:29:47;;;;;;;12.03;7.20;;;13.30;66.40;;;;;;5025886;28;20517;-77
2022/04/26 12:32:17;;;;;;;12.70;7.83;;;13.60;66.00;;;;;;5021560;28;21136;-75
2022/04/26 12:35:00;;;;;;;17.57;7.63;;;13.70;65.80;;;;;;5014137;28;20427;-77
2022/04/26 12:37:29;;;;;;;11.90;7.20;;;13.30;66.90;;;;;;5018554;28;20514;-78
2022/04/26 12:39:58;;;;;;;11.60;7.37;;;13.00;68.90;;;;;;5008218;28;20443;-78
2022/04/26 12:42:27;;;;;;;13.03;7.20;;;12.80;70.10;;;;;;5023515;28;20440;-78
2022/04/26 12:44:57;;;;;;;10.10;6.03;;;12.80;70.40;;;;;;5018930;28;20880;-76
2022/04/26 12:50:31;;;;;;;7.83;4.27;;;11.90;69.80;;;;;;5021365;28;20474;-77
2022/04/26 12:53:08;;;;;;;9.20;4.60;;;11.40;72.30;;;;;;5015385;28;20829;-77
2022/04/26 12:55:39;;;;;;;5.90;4.10;;;11.00;76.80;;;;;;5023843;28;20481;-77
2022/04/26 12:58:07;;;;;;;6.23;3.87;;;10.70;78.70;;;;;;5019052;28;20531;-77
2022/04/26 13:00:36;;;;;;;7.93;4.00;;;10.60;77.70;;;;;;5016074;28;20519;-76
2022/04/26 13:03:04;;;;;;;7.57;3.70;;;10.70;80.60;;;;;;5026355;28;20435;-76
2022/04/26 13:05:46;;;;;;;5.57;4.00;;;10.80;81.50;;;;;;5018809;28;20489;-76
2022/04/26 13:08:14;;;;;;;7.50;4.47;;;10.70;78.90;;;;;;5013888;28;20466;-78
2022/04/26 13:10:40;;;;;;;6.53;4.37;;;10.50;80.80;;;;;;5019761;28;20467;-76
2022/04/26 13:13:06;;;;;;;6.43;3.87;;;10.60;81.50;;;;;;5014105;28;20479;-76
2022/04/26 13:15:33;;;;;;;11.20;4.03;;;10.60;82.40;;;;;;5022784;28;20788;-76
2022/04/26 13:17:59;;;;;;;10.30;5.27;;;10.70;82.70;;;;;;5015631;28;20440;-79
2022/04/26 13:20:26;;;;;;;8.23;5.23;;;10.80;81.80;;;;;;5022831;28;20990;-77
2022/04/26 13:22:52;;;;;;;6.80;4.47;;;10.90;81.90;;;;;;5012947;28;20512;-75
2022/04/26 13:25:18;;;;;;;5.00;3.53;;;11.10;80.20;;;;;;5020286;28;20456;-77
2022/04/26 13:27:47;;;;;;;5.60;3.47;;;11.40;80.80;;;;;;5019770;28;20304;-77
2022/04/26 13:30:13;;;;;;;9.80;4.80;;;12.40;79.00;;;;;;5017340;28;20604;-76
2022/04/26 13:32:39;;;;;;;4.70;3.87;;;13.60;74.30;;;;;;5018010;28;20464;-77
2022/04/26 13:35:05;;;;;;;7.90;4.37;;;14.20;70.50;;;;;;5017268;28;20429;-75
2022/04/26 13:37:32;;;;;;;5.13;3.90;;;14.90;69.80;;;;;;5015604;28;20479;-75
2022/04/26 13:40:00;;;;;;;6.57;3.93;;;15.10;66.00;;;;;;5022031;28;20425;-78
2022/04/26 13:42:27;;;;;;;8.07;4.60;;;14.70;66.00;;;;;;5028538;28;20432;-76
2022/04/26 13:44:58;;;;;;;8.00;4.10;;;14.40;65.80;;;;;;5007553;28;20464;-78
2022/04/26 13:47:24;;;;;;;5.10;3.17;;;14.80;63.70;;;;;;5016466;28;20847;-75
2022/04/26 13:49:53;;;;;;;4.87;3.37;;;15.40;61.00;;;;;;5015910;28;20433;-76
2022/04/26 13:52:20;;;;;;;6.90;3.33;;;15.90;58.00;;;;;;5014321;28;20920;-76
2022/04/26 13:54:46;;;;;;;4.30;3.20;;;15.70;58.50;;;;;;5012864;28;20429;-73
2022/04/26 13:57:12;;;;;;;4.23;2.97;;;15.30;58.00;;;;;;5014276;28;20467;-77
2022/04/26 13:59:38;;;;;;;3.33;2.57;;;15.50;57.70;;;;;;5014340;28;20444;-76
2022/04/26 14:02:09;;;;;;;4.70;2.90;;;15.30;57.40;;;;;;5024334;28;20279;-75
2022/04/26 14:04:37;;;;;;;4.13;2.60;;;15.20;57.70;;;;;;5025140;28;20222;-77
2022/04/26 14:07:04;;;;;;;6.67;3.40;;;15.90;56.10;;;;;;5032612;28;20444;-74
2022/04/26 14:09:30;;;;;;;4.20;3.07;;;16.60;54.40;;;;;;5033598;28;20446;-75
2022/04/26 14:11:55;;;;;;;5.00;3.57;;;17.30;52.80;;;;;;5014317;28;20985;-76
2022/04/26 14:22:41;;;;;;;5.77;3.67;;;16.30;54.60;;;;;;5007389;28;20518;-76
2022/04/26 14:25:09;;;;;;;4.97;3.50;;;16.80;52.50;;;;;;5015697;28;20431;-74
2022/04/26 14:27:36;;;;;;;4.73;3.57;;;16.50;53.40;;;;;;5019697;28;20427;-76
2022/04/26 14:30:03;;;;;;;6.93;4.80;;;15.70;54.60;;;;;;5018903;28;20421;-76
2022/04/26 14:32:29;;;;;;;6.50;4.20;;;14.80;56.60;;;;;;5015432;28;20844;-75
2022/04/26 14:34:55;;;;;;;5.80;4.00;;;14.10;59.70;;;;;;5020428;28;20523;-76
2022/04/26 14:37:22;;;;;;;7.13;3.80;;;13.70;60.00;;;;;;5017881;28;20237;-75
2022/04/26 14:39:49;;;;;;;7.53;4.33;;;13.60;60.90;;;;;;5013856;28;20289;-74
2022/04/26 14:42:15;;;;;;;6.87;4.27;;;13.30;61.70;;;;;;5017614;28;20413;-76
2022/04/26 14:44:41;;;;;;;8.80;5.00;;;13.20;63.70;;;;;;5019936;28;20521;-76
2022/04/26 14:47:07;;;;;;;5.10;4.10;;;13.30;64.50;;;;;;5019484;28;20989;-76
2022/04/26 14:49:33;;;;;;;4.83;3.33;;;13.80;62.90;;;;;;5016763;28;20597;-75
2022/04/26 14:52:00;;;;;;;5.30;3.80;;;14.50;58.90;;;;;;5017487;28;20556;-76
2022/04/26 14:54:25;;;;;;;5.63;3.50;;;15.70;57.40;;;;;;5013326;28;20471;-76
2022/04/26 14:56:51;;;;;;;8.30;5.60;;;17.10;54.50;;;;;;5013775;28;20421;-75
2022/04/26 14:59:18;;;;;;;5.53;3.83;;;18.00;51.60;;;;;;5024974;28;20240;-76
2022/04/26 15:01:46;;;;;;;5.17;3.90;;;18.40;49.40;;;;;;5030832;28;20178;-76
2022/04/26 15:04:12;;;;;;;8.07;3.67;;;18.40;49.70;;;;;;5016242;28;20428;-75
2022/04/26 15:06:39;;;;;;;5.93;3.40;;;18.30;49.70;;;;;;5014814;28;20424;-76
2022/04/26 15:16:37;;;;;;;6.17;3.97;;;16.50;51.70;;;;;;5015618;28;20468;-77
2022/04/26 15:17:19;;;;;;;5.83;4.03;;;14.70;58.10;;;;;;5022176;28;20464;-74
2022/04/26 15:19:44;;;;;;;5.50;3.77;;;14.10;59.90;;;;;;5022349;28;20421;-75
2022/04/26 15:22:11;;;;;;;4.90;3.80;;;13.80;61.60;;;;;;5021567;28;20193;-77
2022/04/26 15:24:37;;;;;;;6.03;4.50;;;13.70;62.60;;;;;;5029186;28;20182;-74
2022/04/26 15:27:03;;;;;;;7.37;4.53;;;13.80;62.60;;;;;;5026453;28;20425;-74
2022/04/26 15:29:31;;;;;;;5.47;3.97;;;13.60;62.50;;;;;;5018927;28;20209;-76
2022/04/26 15:31:57;;;;;;;5.83;4.20;;;13.60;63.40;;;;;;5011088;28;20852;-75
2022/04/26 15:34:23;;;;;;;8.87;4.93;;;13.40;63.20;;;;;;5020311;28;20520;-76
2022/04/26 15:36:49;;;;;;;5.23;3.80;;;13.10;64.40;;;;;;5019491;28;20508;-76
2022/04/26 15:39:14;;;;;;;6.20;4.67;;;12.90;65.10;;;;;;5014468;28;20347;-78
2022/04/26 15:41:40;;;;;;;8.87;4.67;;;12.70;66.40;;;;;;5016485;28;20185;-75
2022/04/26 15:44:06;;;;;;;10.40;5.10;;;12.50;69.50;;;;;;5015981;28;20273;-76
2022/04/26 15:46:31;;;;;;;8.93;4.90;;;12.50;72.60;;;;;;5012511;28;20261;-74
2022/04/26 15:48:57;;;;;;;8.30;5.17;;;12.30;74.60;;;;;;5014299;28;20206;-76
2022/04/26 15:51:25;;;;;;;12.20;5.80;;;11.80;77.80;;;;;;5014280;28;20205;-76
2022/04/26 15:53:50;;;;;;;8.43;5.37;;;11.50;80.50;;;;;;5012836;28;20435;-74
2022/04/26 15:56:16;;;;;;;6.80;4.90;;;11.40;82.10;;;;;;5011758;28;20492;-76
2022/04/26 15:58:42;;;;;;;7.83;3.07;;;11.50;81.90;;;;;;5011736;28;21248;-74
2022/04/26 16:01:09;;;;;;;6.13;3.90;;;11.80;76.20;;;;;;5011896;28;20193;-75
2022/04/26 16:03:35;;;;;;;5.53;3.87;;;12.00;77.40;;;;;;5018170;28;20490;-75
2022/04/26 16:06:01;;;;;;;6.37;4.83;;;12.10;78.90;;;;;;5011386;28;20977;-75
2022/04/26 16:08:26;;;;;;;6.10;4.33;;;11.80;78.00;;;;;;5022014;28;20471;-78
2022/04/26 16:21:50;;;;;;;7.83;3.80;;;14.00;71.80;;;;;;5024996;28;20455;-75
2022/04/26 16:24:17;;;;;;;11.50;5.43;;;13.60;72.00;;;;;;5020742;28;20482;-74
2022/04/26 16:26:43;;;;;;;5.27;3.53;;;13.30;73.30;;;;;;5017483;28;20436;-76
2022/04/26 16:29:10;;;;;;;5.90;3.37;;;12.70;73.50;;;;;;5019833;28;20456;-75
2022/04/26 16:31:38;;;;;;;5.33;3.40;;;12.50;76.70;;;;;;5019200;28;20577;-75
2022/04/26 16:34:05;;;;;;;4.73;2.90;;;12.30;77.70;;;;;;5012348;28;20433;-77
2022/04/26 16:36:30;;;;;;;6.20;3.70;;;12.00;77.80;;;;;;5016370;28;20420;-77
2022/04/26 16:38:58;;;;;;;8.20;4.13;;;11.80;78.60;;;;;;5024646;28;20433;-75
2022/04/26 16:41:24;;;;;;;4.77;3.60;;;11.80;79.50;;;;;;5020954;28;20428;-75
2022/04/26 16:43:50;;;;;;;5.00;3.47;;;11.80;80.20;;;;;;5016521;28;20892;-74
2022/04/26 16:46:17;;;;;;;4.63;3.40;;;11.80;79.60;;;;;;5026310;28;20567;-76
2022/04/26 16:48:43;;;;;;;5.43;3.90;;;11.60;80.00;;;;;;5020283;28;20608;-75
2022/04/26 16:51:09;;;;;;;6.10;3.90;;;11.60;81.90;;;;;;5014748;28;20460;-75
2022/04/26 16:53:35;;;;;;;5.20;3.63;;;11.30;79.90;;;;;;5015545;28;21110;-74
2022/04/26 16:56:03;;;;;;;5.77;3.50;;;11.10;80.90;;;;;;5021877;28;20425;-73
2022/04/26 16:58:29;;;;;;;4.93;3.03;;;10.90;82.20;;;;;;5014248;28;20268;-75
2022/04/26 17:00:56;;;;;;;4.70;3.30;;;10.80;83.00;;;;;;5013806;28;20452;-76